Time;durP1;ratioP1;P1;durP2;ratioP2;P2;SDS_P1;SDS_P2;PMS_P1;PMS_P2;Temp;Humidity;BMP_temperature;BMP_pressure;BME280_temperature;BME280_humidity;BME280_pressure;Samples;Min_cycle;Max_cycle;Signal;HPM_P1;HPM_P2
2023/05/10 00:01:56;;;;;;;41.40;24.55;;;;;;;22.19;52.17;98243.19;4763577;30;20693;-60
2023/05/10 00:04:27;;;;;;;37.60;23.85;;;;;;;22.17;51.89;98246.16;4764191;29;20079;-60
2023/05/10 00:06:56;;;;;;;51.97;24.60;;;;;;;22.15;51.86;98242.94;4763429;29;20063;-60
2023/05/10 00:09:25;;;;;;;45.50;23.85;;;;;;;22.14;51.48;98246.72;4765562;29;20060;-60
2023/05/10 00:11:58;;;;;;;43.70;22.98;;;;;;;22.14;51.37;98248.59;4764088;29;20059;-61
2023/05/10 00:14:27;;;;;;;45.22;24.90;;;;;;;22.15;51.52;98245.63;4763527;30;20119;-60
2023/05/10 00:16:56;;;;;;;42.70;22.00;;;;;;;22.13;51.48;98250.50;4762423;29;20059;-61
2023/05/10 00:19:26;;;;;;;39.45;21.83;;;;;;;22.11;51.48;98247.28;4764464;29;20121;-60
2023/05/10 00:21:55;;;;;;;36.95;21.92;;;;;;;22.09;51.35;98254.81;4764616;29;20078;-61
2023/05/10 00:24:25;;;;;;;34.25;21.05;;;;;;;22.08;50.98;98247.84;4762636;29;20079;-60
2023/05/10 00:26:54;;;;;;;41.63;22.02;;;;;;;22.07;51.28;98257.00;4760517;30;20366;-61
2023/05/10 00:29:24;;;;;;;36.45;21.85;;;;;;;22.03;51.86;98257.84;4761718;29;20070;-61
2023/05/10 00:31:56;;;;;;;36.15;21.75;;;;;;;22.01;51.74;98257.28;4746223;30;20079;-60
2023/05/10 00:34:25;;;;;;;40.22;21.75;;;;;;;21.99;52.29;98265.69;4762672;29;20147;-62
2023/05/10 00:36:55;;;;;;;36.63;21.77;;;;;;;21.98;52.18;98264.06;4748269;30;20052;-60
2023/05/10 00:39:24;;;;;;;42.53;21.17;;;;;;;21.97;51.96;98259.75;4762352;29;20370;-62
2023/05/10 00:41:53;;;;;;;40.97;21.40;;;;;;;21.97;52.47;98267.03;4763313;30;20055;-60
2023/05/10 00:44:22;;;;;;;39.67;22.80;;;;;;;21.98;52.86;98265.94;4762615;29;20124;-61
2023/05/10 00:46:53;;;;;;;40.35;20.38;;;;;;;21.96;51.76;98266.22;4762961;30;20055;-60
2023/05/10 00:49:23;;;;;;;32.88;20.20;;;;;;;21.98;52.34;98274.03;4762080;29;20512;-60
2023/05/10 00:51:52;;;;;;;35.88;19.40;;;;;;;21.99;52.69;98273.78;4762371;30;20710;-59
2023/05/10 00:54:21;;;;;;;32.05;17.98;;;;;;;22.01;52.77;98262.69;4762286;29;20070;-60
2023/05/10 00:56:51;;;;;;;35.90;17.80;;;;;;;22.04;52.53;98264.84;4759297;30;20055;-60
2023/05/10 00:59:21;;;;;;;35.13;16.50;;;;;;;22.06;52.64;98273.47;4762166;29;20075;-59
2023/05/10 01:01:51;;;;;;;28.40;15.35;;;;;;;22.07;53.13;98275.88;4763281;30;20071;-60
2023/05/10 01:04:25;;;;;;;28.02;14.60;;;;;;;22.10;53.23;98278.03;4763614;29;20055;-61
2023/05/10 01:06:54;;;;;;;29.58;14.20;;;;;;;22.14;53.17;98272.88;4759441;30;20120;-60
2023/05/10 01:09:56;;;;;;;29.23;13.55;;;;;;;22.19;52.88;98273.66;4761010;29;20456;-60
2023/05/10 01:12:26;;;;;;;26.48;12.77;;;;;;;22.24;53.07;98273.63;4773262;29;20063;-59
2023/05/10 01:14:55;;;;;;;27.92;12.70;;;;;;;22.29;53.07;98280.91;4761030;30;20047;-61
2023/05/10 01:17:26;;;;;;;22.88;11.70;;;;;;;22.43;51.36;98281.09;4758407;29;20124;-60
2023/05/10 01:19:55;;;;;;;25.52;11.40;;;;;;;22.58;49.24;98284.50;4762979;30;20051;-61
2023/05/10 01:22:52;;;;;;;23.20;12.65;;;;;;;22.67;48.83;98292.78;4760811;29;20443;-60
2023/05/10 01:25:46;;;;;;;31.80;12.15;;;;;;;22.76;47.56;98297.34;4760376;29;20055;-60
2023/05/10 01:28:48;;;;;;;28.35;12.93;;;;;;;22.85;47.69;98297.56;4761595;29;20077;-61
2023/05/10 01:31:53;;;;;;;37.53;14.68;;;;;;;22.97;47.90;98300.69;4760789;29;21158;-62
2023/05/10 01:34:33;;;;;;;32.47;14.40;;;;;;;23.06;47.37;98295.50;4762466;29;20060;-61
2023/05/10 01:37:11;;;;;;;29.95;15.13;;;;;;;23.17;47.98;98294.34;4758802;29;20059;-61
2023/05/10 01:39:50;;;;;;;77.80;16.52;;;;;;;23.28;48.42;98296.66;4772444;29;20138;-60
2023/05/10 01:42:27;;;;;;;38.15;15.52;;;;;;;23.49;49.28;98296.50;4758286;29;20051;-60
2023/05/10 01:45:17;;;;;;;38.92;17.17;;;;;;;23.73;48.79;98305.41;4761483;30;20060;-60
2023/05/10 01:48:02;;;;;;;33.60;16.58;;;;;;;24.13;44.49;98302.25;4761414;30;20655;-59
2023/05/10 01:50:36;;;;;;;37.95;17.35;;;;;;;24.85;45.99;98302.88;4769835;29;20563;-61
2023/05/10 01:53:08;;;;;;;35.15;17.58;;;;;;;25.67;41.53;98292.28;4765325;29;20516;-60
2023/05/10 01:55:48;;;;;;;38.55;16.90;;;;;;;26.35;39.70;98296.91;4762434;29;20060;-60
2023/05/10 01:58:23;;;;;;;31.95;17.33;;;;;;;26.71;38.89;98296.94;4761562;29;20066;-62
2023/05/10 02:00:53;;;;;;;32.15;17.33;;;;;;;27.16;40.35;98293.16;4761099;30;20055;-60
2023/05/10 02:03:26;;;;;;;42.58;15.57;;;;;;;27.65;36.53;98299.53;4747079;29;20059;-61
2023/05/10 02:05:57;;;;;;;29.90;15.38;;;;;;;28.17;36.54;98300.53;4761701;30;20155;-61
2023/05/10 02:08:27;;;;;;;28.20;15.77;;;;;;;28.70;32.54;98300.31;4761370;30;20139;-61
2023/05/10 02:10:58;;;;;;;31.77;13.88;;;;;;;29.61;34.78;98300.00;4761849;30;20064;-60
2023/05/10 02:13:30;;;;;;;34.10;16.33;;;;;;;30.38;32.97;98295.31;4761638;29;20065;-61
2023/05/10 02:16:01;;;;;;;27.77;15.63;;;;;;;30.58;34.33;98300.81;4759661;29;20631;-60
2023/05/10 02:18:33;;;;;;;33.53;15.65;;;;;;;31.53;32.59;98297.25;4758764;30;20121;-61
2023/05/10 02:21:03;;;;;;;33.65;17.23;;;;;;;31.49;33.28;98310.00;4758765;29;20070;-62
2023/05/10 02:23:34;;;;;;;32.08;16.75;;;;;;;31.28;33.27;98315.56;4770939;29;20063;-61
2023/05/10 02:26:06;;;;;;;31.92;17.35;;;;;;;31.03;34.47;98324.78;4759393;29;20063;-61
2023/05/10 02:28:37;;;;;;;29.92;18.13;;;;;;;30.81;34.82;98314.97;4759390;29;20067;-60
2023/05/10 02:31:09;;;;;;;36.83;19.67;;;;;;;30.57;34.97;98326.59;4760454;29;20121;-61
2023/05/10 02:33:41;;;;;;;30.45;18.40;;;;;;;30.44;35.12;98319.41;4758893;30;20055;-60
2023/05/10 02:36:11;;;;;;;43.55;19.15;;;;;;;30.26;35.80;98329.66;4772645;29;20156;-61
2023/05/10 02:38:41;;;;;;;47.17;21.25;;;;;;;30.20;35.54;98327.41;4761777;29;20056;-60
2023/05/10 02:41:12;;;;;;;32.25;20.73;;;;;;;30.11;36.09;98326.66;4746924;29;20059;-62
2023/05/10 02:43:43;;;;;;;35.50;19.77;;;;;;;29.95;36.23;98326.44;4760620;30;20055;-60
2023/05/10 02:46:12;;;;;;;35.78;18.52;;;;;;;29.84;35.87;98316.97;4756902;29;20047;-61
2023/05/10 02:48:42;;;;;;;30.13;15.98;;;;;;;29.66;36.29;98323.59;4746027;30;20648;-63
2023/05/10 02:51:14;;;;;;;32.28;16.30;;;;;;;29.61;36.38;98321.84;4744793;29;20059;-60
2023/05/10 02:53:46;;;;;;;28.60;16.50;;;;;;;29.58;36.13;98324.44;4758921;30;20052;-61
2023/05/10 02:56:29;;;;;;;35.08;17.17;;;;;;;29.62;37.08;98322.66;4744025;29;20052;-61
2023/05/10 02:58:59;;;;;;;29.33;15.75;;;;;;;29.67;36.92;98325.22;4733254;30;20052;-61
2023/05/10 03:01:29;;;;;;;32.33;14.73;;;;;;;29.68;36.28;98321.38;4751791;30;20082;-60
2023/05/10 03:03:59;;;;;;;26.98;13.23;;;;;;;29.48;35.83;98324.78;4754263;30;20059;-61
2023/05/10 03:06:28;;;;;;;25.60;12.65;;;;;;;29.27;36.61;98328.19;4761953;30;20086;-60
2023/05/10 03:08:58;;;;;;;26.40;12.20;;;;;;;29.18;35.88;98324.66;4779032;29;20067;-60
2023/05/10 03:12:08;;;;;;;20.25;11.85;;;;;;;28.99;36.46;98326.91;4763342;30;20051;-61
2023/05/10 03:15:01;;;;;;;19.35;10.38;;;;;;;28.88;36.69;98331.09;4754910;30;20068;-61
2023/05/10 03:17:40;;;;;;;27.35;11.65;;;;;;;28.80;36.75;98334.63;4745916;30;20152;-61
2023/05/10 03:20:23;;;;;;;24.75;10.20;;;;;;;28.55;36.58;98326.06;4750141;29;20136;-60
2023/05/10 03:23:01;;;;;;;22.67;10.48;;;;;;;28.57;37.44;98321.13;4763573;30;20154;-62
2023/05/10 03:25:31;;;;;;;23.98;10.18;;;;;;;28.44;36.53;98332.16;4764789;29;20052;-61
2023/05/10 03:28:05;;;;;;;14.48;8.98;;;;;;;28.53;35.80;98325.59;4763680;29;20155;-61
2023/05/10 03:30:36;;;;;;;24.83;9.15;;;;;;;28.59;36.00;98324.31;4763339;30;20075;-61
2023/05/10 03:33:07;;;;;;;15.68;8.57;;;;;;;28.72;35.44;98328.06;4763600;29;20520;-59
2023/05/10 03:35:39;;;;;;;;;;;;;;;28.75;35.42;98332.84;4748701;30;20062;-61
2023/05/10 03:38:09;;;;;;;21.40;9.02;;;;;;;28.75;35.92;98329.34;4764283;29;20012;-60
2023/05/10 03:40:38;;;;;;;15.15;7.97;;;;;;;28.76;36.44;98330.94;4765503;29;20572;-61
2023/05/10 03:43:09;;;;;;;17.65;7.65;;;;;;;28.63;35.30;98340.03;4768254;29;20071;-65
2023/05/10 03:45:40;;;;;;;14.48;6.57;;;;;;;28.64;34.94;98331.53;4754482;30;20135;-60
2023/05/10 03:48:09;;;;;;;18.58;6.85;;;;;;;28.85;34.96;98329.03;4763698;29;20059;-61
2023/05/10 03:50:38;;;;;;;11.27;7.10;;;;;;;28.71;35.71;98337.34;4766907;30;20506;-60
2023/05/10 03:53:07;;;;;;;14.95;7.25;;;;;;;28.79;35.07;98336.56;4765019;29;20060;-61
2023/05/10 03:55:37;;;;;;;15.30;7.45;;;;;;;28.89;35.12;98341.69;4764308;30;20529;-62
2023/05/10 03:58:06;;;;;;;15.27;7.00;;;;;;;28.96;36.18;98347.47;4745983;30;20139;-61
2023/05/10 04:00:35;;;;;;;16.23;7.82;;;;;;;28.88;36.08;98348.25;4761262;30;20371;-60
2023/05/10 04:03:05;;;;;;;9.93;7.03;;;;;;;28.97;34.94;98343.63;4763678;29;20063;-61
2023/05/10 04:05:34;;;;;;;10.20;6.93;;;;;;;29.19;35.15;98348.09;4760816;30;20536;-60
2023/05/10 04:08:04;;;;;;;10.95;6.32;;;;;;;29.31;35.16;98344.72;4762824;29;20757;-60
2023/05/10 04:10:34;;;;;;;11.88;5.70;;;;;;;29.10;35.16;98344.56;4763242;30;20055;-62
2023/05/10 04:13:03;;;;;;;12.35;6.10;;;;;;;29.09;33.54;98344.88;4763372;29;20070;-61
2023/05/10 04:15:33;;;;;;;8.45;5.50;;;;;;;29.08;33.71;98346.78;4764056;29;20484;-61
2023/05/10 04:18:02;;;;;;;12.75;6.18;;;;;;;29.13;33.91;98352.09;4763275;29;20133;-62
2023/05/10 04:20:35;;;;;;;11.98;6.50;;;;;;;29.04;34.14;98351.28;4762408;30;20051;-60
2023/05/10 04:23:04;;;;;;;15.07;7.20;;;;;;;29.18;34.48;98351.13;4763386;29;20063;-61
2023/05/10 04:25:35;;;;;;;21.27;8.45;;;;;;;29.37;33.93;98348.91;4764815;29;20430;-61
2023/05/10 04:28:04;;;;;;;17.10;8.02;;;;;;;29.45;34.04;98359.78;4764087;29;20680;-62
2023/05/10 04:30:34;;;;;;;14.82;6.93;;;;;;;29.53;32.94;98354.63;4763997;29;20075;-61
2023/05/10 04:33:04;;;;;;;16.67;7.00;;;;;;;29.67;32.93;98357.97;4762973;29;20055;-62
2023/05/10 04:35:33;;;;;;;15.63;7.28;;;;;;;29.71;33.28;98358.91;4764047;29;20047;-61
2023/05/10 04:38:03;;;;;;;15.00;6.25;;;;;;;29.77;33.58;98357.63;4763346;29;20063;-63
2023/05/10 04:40:32;;;;;;;15.23;6.75;;;;;;;29.51;34.16;98354.97;4764330;29;20542;-63
2023/05/10 04:43:02;;;;;;;12.75;6.65;;;;;;;29.81;32.90;98355.84;4764264;29;20083;-62
2023/05/10 04:45:31;;;;;;;23.50;6.47;;;;;;;29.89;32.53;98357.78;4763409;30;20074;-61
2023/05/10 04:48:00;;;;;;;14.70;5.43;;;;;;;30.02;32.63;98356.75;4763388;30;20759;-61
2023/05/10 04:50:29;;;;;;;10.40;4.78;;;;;;;30.16;31.97;98349.16;4764060;29;20695;-61
2023/05/10 04:52:59;;;;;;;11.68;4.45;;;;;;;30.06;32.64;98352.25;4763255;30;20075;-61
2023/05/10 04:55:28;;;;;;;11.85;4.90;;;;;;;30.18;31.70;98355.06;4762852;29;20071;-61
2023/05/10 04:57:58;;;;;;;10.43;4.55;;;;;;;29.74;33.29;98361.78;4764339;29;20055;-60
2023/05/10 05:00:28;;;;;;;12.00;4.80;;;;;;;29.38;33.63;98354.03;4763612;29;20497;-58
2023/05/10 05:02:57;;;;;;;9.77;4.93;;;;;;;29.42;33.54;98357.72;4764019;29;20074;-58
2023/05/10 05:05:26;;;;;;;16.55;5.45;;;;;;;29.26;34.75;98353.84;4761589;30;20517;-61
2023/05/10 05:07:56;;;;;;;16.00;6.03;;;;;;;29.39;34.38;98349.34;4763525;29;20051;-61
2023/05/10 05:10:25;;;;;;;18.05;5.55;;;;;;;29.52;34.54;98350.31;4763656;29;20066;-61
2023/05/10 05:12:54;;;;;;;13.13;5.40;;;;;;;29.51;33.74;98345.97;4764075;29;20052;-60
2023/05/10 05:15:24;;;;;;;11.05;5.43;;;;;;;29.70;33.02;98343.66;4763531;29;20052;-60
2023/05/10 05:17:53;;;;;;;15.88;6.00;;;;;;;29.89;34.39;98363.22;4763811;29;20083;-61
2023/05/10 05:20:23;;;;;;;9.82;5.63;;;;;;;29.94;33.57;98354.06;4760380;29;20064;-61
2023/05/10 05:22:52;;;;;;;15.93;6.15;;;;;;;29.93;34.64;98366.91;4763408;29;20121;-60
2023/05/10 05:25:21;;;;;;;21.15;6.78;;;;;;;30.17;34.59;98350.75;4762265;29;20063;-60
2023/05/10 05:27:51;;;;;;;9.80;5.55;;;;;;;30.42;33.36;98346.25;4745456;30;20127;-60
2023/05/10 05:30:21;;;;;;;11.18;5.65;;;;;;;30.57;33.28;98348.47;4758917;30;20556;-60
2023/05/10 05:32:50;;;;;;;9.52;4.57;;;;;;;30.73;32.86;98345.91;4752335;29;20060;-60
2023/05/10 05:35:19;;;;;;;13.88;4.35;;;;;;;30.83;32.47;98356.47;4761271;29;20472;-60
2023/05/10 05:37:49;;;;;;;13.95;4.18;;;;;;;30.86;33.94;98353.06;4761519;30;20051;-61
2023/05/10 05:40:20;;;;;;;9.63;4.20;;;;;;;31.09;32.34;98342.59;4761894;29;20137;-61
2023/05/10 05:42:49;;;;;;;6.57;4.63;;;;;;;30.79;33.89;98350.06;4762294;29;20086;-60
2023/05/10 05:45:19;;;;;;;9.10;4.10;;;;;;;30.65;33.47;98344.06;4760474;29;20066;-60
2023/05/10 05:47:48;;;;;;;11.27;4.55;;;;;;;30.59;33.71;98345.38;4763772;29;20052;-61
2023/05/10 05:50:17;;;;;;;9.60;4.40;;;;;;;30.59;33.51;98329.78;4762533;29;20060;-62
2023/05/10 05:52:46;;;;;;;7.80;4.30;;;;;;;30.75;34.41;98333.53;4762904;29;20052;-63
2023/05/10 05:55:16;;;;;;;12.05;4.15;;;;;;;30.61;34.51;98334.91;4761767;29;20052;-60
2023/05/10 05:57:45;;;;;;;11.50;3.85;;;;;;;30.79;33.75;98339.13;4761778;29;20058;-62
2023/05/10 06:00:15;;;;;;;11.80;4.05;;;;;;;30.97;33.31;98329.66;4744063;30;20128;-61
2023/05/10 06:02:45;;;;;;;8.10;3.70;;;;;;;31.04;34.51;98332.66;4761789;30;20060;-61
2023/05/10 06:05:14;;;;;;;11.00;4.25;;;;;;;30.94;34.02;98326.75;4761964;29;20056;-62
2023/05/10 06:07:44;;;;;;;6.97;3.70;;;;;;;31.05;34.42;98328.81;4762581;29;20056;-61
2023/05/10 06:10:13;;;;;;;14.43;3.80;;;;;;;30.98;33.41;98320.28;4760904;29;20062;-60
2023/05/10 06:12:42;;;;;;;5.78;3.33;;;;;;;30.97;33.24;98331.59;4762316;29;20055;-61
2023/05/10 06:15:12;;;;;;;7.43;3.42;;;;;;;30.87;33.27;98318.31;4762618;29;20633;-62
2023/05/10 06:17:43;;;;;;;12.70;3.92;;;;;;;30.96;34.55;98317.09;4761437;29;20048;-63
2023/05/10 06:20:13;;;;;;;12.63;4.57;;;;;;;31.04;33.85;98326.41;4762125;29;20060;-61
2023/05/10 06:22:42;;;;;;;12.23;4.47;;;;;;;31.03;34.25;98324.78;4755558;29;20056;-61
2023/05/10 06:25:12;;;;;;;10.00;4.68;;;;;;;30.76;34.77;98315.97;4762617;29;20064;-62
2023/05/10 06:27:41;;;;;;;8.32;4.53;;;;;;;30.84;35.02;98319.00;4762527;29;20048;-60
2023/05/10 06:30:15;;;;;;;9.70;4.20;;;;;;;30.83;36.29;98312.72;4767544;29;20583;-60
2023/05/10 06:32:45;;;;;;;10.57;3.63;;;;;;;30.84;35.23;98319.78;4773392;29;20446;-60
2023/05/10 06:35:16;;;;;;;11.52;4.57;;;;;;;30.80;36.73;98299.72;4751375;30;20051;-63
2023/05/10 06:37:46;;;;;;;12.15;4.00;;;;;;;30.86;36.59;98303.84;4758436;30;20071;-59
2023/05/10 06:40:16;;;;;;;8.13;4.07;;;;;;;30.92;36.48;98298.97;4755818;29;20062;-60
2023/05/10 06:42:46;;;;;;;8.45;4.22;;;;;;;30.79;35.87;98303.59;4757299;29;20059;-65
2023/05/10 06:45:17;;;;;;;12.70;3.72;;;;;;;31.10;34.96;98294.97;4758051;29;20061;-65
2023/05/10 06:47:47;;;;;;;10.73;3.97;;;;;;;31.29;35.82;98303.44;4762746;29;20063;-61
2023/05/10 06:50:17;;;;;;;12.93;4.18;;;;;;;31.24;36.31;98291.94;4744257;29;20540;-64
2023/05/10 06:52:46;;;;;;;11.98;3.85;;;;;;;31.52;30.99;98292.91;4749752;30;20089;-59
2023/05/10 06:55:15;;;;;;;13.25;3.83;;;;;;;31.53;33.94;98297.25;4745088;30;20052;-60
2023/05/10 06:57:45;;;;;;;13.40;4.15;;;;;;;31.53;33.82;98297.25;4761421;29;20137;-60
2023/05/10 07:00:15;;;;;;;17.90;3.65;;;;;;;31.87;31.73;98296.03;4762815;29;20059;-62
2023/05/10 07:02:45;;;;;;;9.27;3.63;;;;;;;31.69;34.33;98287.25;4761869;30;20055;-66
2023/05/10 07:05:15;;;;;;;12.82;3.78;;;;;;;31.45;34.99;98293.47;4743082;30;20071;-63
2023/05/10 07:07:44;;;;;;;21.35;5.57;;;;;;;31.23;35.06;98282.94;4758052;29;20083;-63
2023/05/10 07:10:14;;;;;;;15.77;4.78;;;;;;;31.29;34.52;98289.75;4761631;29;20075;-63
2023/05/10 07:12:43;;;;;;;10.93;5.05;;;;;;;31.17;35.41;98290.53;4763827;29;20059;-62
2023/05/10 07:15:13;;;;;;;16.73;5.15;;;;;;;31.38;34.87;98281.50;4759934;29;20071;-62
2023/05/10 07:17:42;;;;;;;12.60;4.50;;;;;;;31.59;34.49;98279.50;4761742;30;20070;-63
2023/05/10 07:20:14;;;;;;;16.17;5.05;;;;;;;31.73;34.58;98269.03;4762584;29;20062;-64
2023/05/10 07:22:43;;;;;;;12.75;5.00;;;;;;;31.58;35.33;98267.75;4760245;29;20064;-62
2023/05/10 07:25:12;;;;;;;10.02;4.80;;;;;;;31.74;34.89;98270.59;4749875;29;20087;-61
2023/05/10 07:27:42;;;;;;;12.15;5.18;;;;;;;31.95;31.43;98257.59;4774142;29;20780;-63
2023/05/10 07:30:12;;;;;;;12.13;5.00;;;;;;;31.78;35.32;98265.25;4761584;29;20055;-61
2023/05/10 07:32:42;;;;;;;10.48;4.97;;;;;;;31.66;34.43;98257.81;4756480;29;20473;-60
2023/05/10 07:35:12;;;;;;;18.10;6.38;;;;;;;31.79;34.67;98262.16;4759692;29;20055;-63
2023/05/10 07:37:41;;;;;;;17.38;6.38;;;;;;;31.55;35.97;98256.69;4762478;29;20151;-64
2023/05/10 07:40:10;;;;;;;15.07;5.70;;;;;;;31.50;35.26;98251.38;4761843;29;20076;-63
2023/05/10 07:42:40;;;;;;;13.27;5.05;;;;;;;31.57;35.58;98243.44;4763101;30;20051;-65
2023/05/10 07:45:09;;;;;;;12.57;4.78;;;;;;;31.68;35.45;98241.06;4764403;29;20142;-63
2023/05/10 07:47:39;;;;;;;11.77;5.00;;;;;;;31.39;36.25;98242.81;4764400;30;20055;-63
2023/05/10 07:50:08;;;;;;;17.85;5.00;;;;;;;31.51;35.06;98244.78;4763352;29;20583;-63
2023/05/10 07:52:38;;;;;;;18.08;5.50;;;;;;;31.67;35.85;98243.00;4764897;29;20063;-62
2023/05/10 07:55:07;;;;;;;18.75;5.57;;;;;;;31.41;34.66;98237.81;4764206;29;20138;-61
2023/05/10 07:57:38;;;;;;;12.65;5.90;;;;;;;31.59;35.04;98238.44;4764576;29;20465;-59
2023/05/10 08:00:08;;;;;;;18.60;5.75;;;;;;;31.39;35.47;98234.59;4764447;29;20056;-60
2023/05/10 08:02:41;;;;;;;9.70;6.20;;;;;;;31.54;36.26;98233.13;4765375;29;20432;-60
2023/05/10 08:05:11;;;;;;;13.85;5.22;;;;;;;31.87;30.78;98213.88;4763748;29;20512;-59
2023/05/10 08:07:41;;;;;;;13.05;4.45;;;;;;;31.80;35.52;98221.88;4764361;30;20056;-59
2023/05/10 08:10:13;;;;;;;11.25;4.38;;;;;;;31.76;33.68;98216.28;4764182;29;20055;-62
2023/05/10 08:12:42;;;;;;;17.35;3.90;;;;;;;31.96;31.05;98225.50;4752518;30;20056;-66
2023/05/10 08:15:12;;;;;;;11.95;4.25;;;;;;;32.40;27.32;98224.53;4756322;29;20154;-63
2023/05/10 08:17:41;;;;;;;10.15;3.95;;;;;;;32.28;32.82;98218.28;4764219;30;20056;-64
2023/05/10 08:20:12;;;;;;;7.25;3.78;;;;;;;32.15;31.37;98213.97;4762197;29;20059;-64
2023/05/10 08:22:41;;;;;;;14.77;4.10;;;;;;;32.05;31.51;98221.50;4757104;29;20060;-65
2023/05/10 08:25:11;;;;;;;11.60;3.60;;;;;;;31.80;31.88;98211.72;4764395;29;20059;-64
2023/05/10 08:27:40;;;;;;;10.57;3.38;;;;;;;31.73;32.46;98224.41;4764649;30;20052;-63
2023/05/10 08:30:10;;;;;;;13.32;5.18;;;;;;;31.84;29.47;98207.16;4762447;29;20052;-66
2023/05/10 08:32:39;;;;;;;13.60;4.07;;;;;;;32.38;29.18;98217.81;4764778;29;20503;-68
2023/05/10 08:35:09;;;;;;;12.18;3.25;;;;;;;32.49;27.64;98213.44;4765026;29;20142;-60
2023/05/10 08:37:38;;;;;;;9.52;3.50;;;;;;;32.82;28.19;98210.47;4764334;29;20460;-64
2023/05/10 08:40:13;;;;;;;20.45;4.47;;;;;;;32.65;28.08;98206.09;4773625;29;20119;-64
2023/05/10 08:42:55;;;;;;;11.95;4.25;;;;;;;32.29;31.59;98195.22;4765977;29;20113;-66
2023/05/10 08:45:28;;;;;;;9.48;3.95;;;;;;;32.05;31.65;98194.09;4764853;29;20072;-64
2023/05/10 08:47:59;;;;;;;11.38;3.80;;;;;;;32.28;30.76;98191.69;4764773;29;20059;-64
2023/05/10 08:50:30;;;;;;;9.10;3.83;;;;;;;31.92;31.94;98184.31;4759605;30;20150;-68
2023/05/10 08:53:04;;;;;;;16.88;3.80;;;;;;;31.67;31.86;98190.97;4763370;29;20067;-63
2023/05/10 08:55:36;;;;;;;10.02;3.90;;;;;;;31.40;32.71;98175.97;4764078;29;20056;-65
2023/05/10 08:58:06;;;;;;;14.13;3.70;;;;;;;31.35;32.15;98175.41;4761553;29;20048;-65
2023/05/10 09:00:37;;;;;;;10.40;4.18;;;;;;;31.19;32.66;98176.09;4758947;29;20058;-66
2023/05/10 09:03:07;;;;;;;11.00;3.65;;;;;;;31.14;32.67;98165.34;4762271;29;20715;-64
2023/05/10 09:05:37;;;;;;;10.30;3.97;;;;;;;31.16;32.31;98162.25;4763960;29;20047;-66
2023/05/10 09:08:08;;;;;;;8.77;3.97;;;;;;;31.00;33.29;98156.66;4763025;29;20052;-63
2023/05/10 09:10:40;;;;;;;8.32;3.90;;;;;;;30.79;34.02;98153.19;4762995;30;20117;-64
2023/05/10 09:13:13;;;;;;;19.60;4.45;;;;;;;30.67;33.66;98147.69;4763675;29;20084;-64
2023/05/10 09:15:44;;;;;;;15.18;4.45;;;;;;;30.68;34.58;98152.78;4764552;29;20059;-66
2023/05/10 09:18:14;;;;;;;13.20;4.32;;;;;;;30.52;34.56;98142.84;4762213;29;20493;-64
2023/05/10 09:20:44;;;;;;;12.27;4.38;;;;;;;30.56;35.37;98150.03;4760603;30;20056;-65
2023/05/10 09:23:14;;;;;;;8.77;4.22;;;;;;;30.53;34.60;98155.38;4761997;29;20051;-65
2023/05/10 09:25:43;;;;;;;9.80;4.32;;;;;;;30.59;34.36;98143.06;4762868;29;20058;-65
2023/05/10 09:28:13;;;;;;;12.35;4.20;;;;;;;30.51;33.80;98142.03;4763091;29;20421;-66
2023/05/10 09:30:42;;;;;;;11.65;4.30;;;;;;;30.38;34.67;98140.34;4762995;29;20147;-65
2023/05/10 09:33:12;;;;;;;11.63;4.22;;;;;;;30.34;33.56;98137.50;4759912;29;20074;-67
2023/05/10 09:35:42;;;;;;;14.75;5.07;;;;;;;30.33;34.96;98140.56;4762994;30;20067;-64
2023/05/10 09:38:11;;;;;;;15.65;4.78;;;;;;;30.26;35.34;98141.13;4761817;29;20488;-66
2023/05/10 09:40:54;;;;;;;14.23;4.93;;;;;;;30.25;34.24;98127.78;4765224;29;20481;-64
2023/05/10 09:43:24;;;;;;;8.30;4.07;;;;;;;30.21;33.69;98115.91;4761455;29;20560;-64
2023/05/10 09:45:53;;;;;;;14.40;4.90;;;;;;;30.28;33.84;98114.25;4748324;30;20052;-65
2023/05/10 09:48:24;;;;;;;12.27;4.00;;;;;;;30.27;33.66;98118.09;4763033;29;20056;-64
2023/05/10 09:50:58;;;;;;;13.98;4.43;;;;;;;30.15;33.24;98112.59;4763381;29;20059;-64
2023/05/10 09:53:27;;;;;;;16.10;4.30;;;;;;;30.15;33.59;98118.06;4762132;30;20058;-64
2023/05/10 09:55:57;;;;;;;9.32;4.28;;;;;;;30.20;33.37;98111.59;4762462;30;20495;-65
2023/05/10 09:58:26;;;;;;;9.52;3.75;;;;;;;30.10;33.15;98090.13;4762922;29;20051;-65
2023/05/10 10:00:56;;;;;;;11.10;4.15;;;;;;;30.04;34.09;98102.41;4763336;29;20048;-65
2023/05/10 10:03:26;;;;;;;11.55;4.07;;;;;;;29.98;33.07;98090.88;4762317;29;20071;-64
2023/05/10 10:05:57;;;;;;;14.25;4.35;;;;;;;30.12;34.50;98096.06;4761895;30;20504;-64
2023/05/10 10:08:28;;;;;;;16.75;4.30;;;;;;;30.15;33.58;98090.72;4761603;30;20782;-64
2023/05/10 10:10:57;;;;;;;12.82;4.07;;;;;;;30.13;32.99;98092.22;4761652;30;20094;-66
2023/05/10 10:13:27;;;;;;;12.18;3.83;;;;;;;30.15;32.40;98082.53;4761016;30;20049;-65
2023/05/10 10:15:56;;;;;;;10.70;3.60;;;;;;;30.11;32.84;98080.81;4761513;29;20075;-65
2023/05/10 10:18:28;;;;;;;8.90;3.75;;;;;;;30.06;33.23;98087.28;4761733;30;20056;-65
2023/05/10 10:20:58;;;;;;;13.40;3.80;;;;;;;30.06;32.08;98070.09;4763299;29;20166;-64
2023/05/10 10:23:29;;;;;;;13.32;3.58;;;;;;;30.12;33.43;98077.75;4761430;29;20048;-65
2023/05/10 10:25:59;;;;;;;10.50;3.75;;;;;;;30.03;32.56;98081.69;4762577;29;20152;-63
2023/05/10 10:28:48;;;;;;;10.65;3.90;;;;;;;30.05;33.63;98077.47;4761776;30;20377;-64
2023/05/10 10:31:18;;;;;;;7.45;3.95;;;;;;;29.96;33.94;98071.31;4761623;29;20051;-65
2023/05/10 10:33:54;;;;;;;10.93;4.43;;;;;;;30.00;33.98;98065.97;4764749;29;20067;-67
2023/05/10 10:36:26;;;;;;;7.43;4.07;;;;;;;30.10;33.36;98060.09;4759666;29;20052;-67
2023/05/10 10:39:01;;;;;;;13.93;3.80;;;;;;;30.10;33.98;98071.00;4764668;29;20047;-65
2023/05/10 10:41:35;;;;;;;12.57;4.30;;;;;;;30.08;33.55;98067.84;4773508;29;20144;-64
2023/05/10 10:47:11;;;;;;;7.35;3.75;;;;;;;30.02;34.08;98059.03;4760621;29;20051;-65
2023/05/10 10:49:41;;;;;;;8.40;3.50;;;;;;;29.92;33.27;98062.16;4760139;30;20056;-65
2023/05/10 10:52:38;;;;;;;8.23;3.75;;;;;;;29.98;33.32;98051.84;4762611;29;20159;-65
2023/05/10 10:55:16;;;;;;;8.73;3.30;;;;;;;30.02;32.58;98058.22;4761255;29;20063;-65
2023/05/10 10:58:00;;;;;;;12.95;3.58;;;;;;;30.11;32.32;98053.50;4762885;29;20059;-65
2023/05/10 11:00:33;;;;;;;;;;;;;;;30.00;33.85;98060.50;4760111;30;20055;-67
2023/05/10 11:03:06;;;;;;;13.55;4.05;;;;;;;29.91;34.19;98059.78;4763197;29;19980;-65
2023/05/10 11:05:50;;;;;;;15.10;3.88;;;;;;;29.91;34.47;98054.34;4762827;29;20055;-65
2023/05/10 11:08:32;;;;;;;10.65;4.10;;;;;;;29.89;33.85;98060.91;4761577;29;20498;-65
2023/05/10 11:11:07;;;;;;;10.82;3.92;;;;;;;29.77;33.69;98049.91;4761260;29;20047;-65
2023/05/10 11:13:50;;;;;;;11.07;3.67;;;;;;;29.86;32.59;98047.91;4762459;29;20055;-65
2023/05/10 11:16:23;;;;;;;7.93;3.13;;;;;;;29.84;32.87;98049.38;4745650;29;20147;-67
2023/05/10 11:19:02;;;;;;;7.53;3.17;;;;;;;29.83;33.17;98045.81;4763962;30;20136;-64
2023/05/10 11:21:33;;;;;;;11.52;3.25;;;;;;;29.91;32.15;98036.00;4747565;30;20841;-65
2023/05/10 11:24:14;;;;;;;11.20;3.80;;;;;;;29.79;33.37;98046.81;4752688;29;20060;-66
2023/05/10 11:26:44;;;;;;;15.07;4.32;;;;;;;29.73;33.75;98045.44;4759765;29;20056;-64
2023/05/10 11:29:13;;;;;;;13.95;3.67;;;;;;;29.72;33.77;98041.13;4764432;29;20063;-65
2023/05/10 11:31:45;;;;;;;10.63;4.03;;;;;;;29.87;33.44;98045.97;4763853;29;20156;-64
2023/05/10 11:34:33;;;;;;;12.10;3.60;;;;;;;29.84;33.56;98039.25;4765701;29;20069;-65
2023/05/10 11:37:02;;;;;;;10.43;3.70;;;;;;;29.89;32.82;98038.28;4764460;29;20398;-67
2023/05/10 11:39:33;;;;;;;7.70;3.75;;;;;;;29.83;33.34;98045.81;4763766;30;20846;-66
2023/05/10 11:42:02;;;;;;;12.70;3.90;;;;;;;29.78;33.25;98035.13;4765478;29;20109;-66
2023/05/10 11:44:33;;;;;;;23.60;6.85;;;;;;;29.70;33.45;98035.19;4764153;30;20064;-67
2023/05/10 11:47:03;;;;;;;17.95;6.50;;;;;;;29.62;33.28;98033.31;4764760;29;20718;-65
2023/05/10 11:49:32;;;;;;;13.25;6.60;;;;;;;29.51;32.93;98037.59;4763646;29;20087;-66